createdAt,value
2023-01-29T00:00:35.628Z,80.09
2023-01-29T00:03:02.673Z,80.35
2023-01-29T00:05:29.687Z,80.63
2023-01-29T00:07:57.202Z,80.33
2023-01-29T00:10:25.671Z,80.81
2023-01-29T00:12:52.879Z,81.22
2023-01-29T00:15:21.007Z,81.08
2023-01-29T00:17:47.948Z,80.78
2023-01-29T00:20:16.011Z,80.72
2023-01-29T00:22:43.229Z,80.20
2023-01-29T00:25:10.235Z,80.20
2023-01-29T00:27:37.418Z,80.38
2023-01-29T00:30:13.366Z,81.18
2023-01-29T00:32:40.913Z,80.64
2023-01-29T00:35:09.172Z,80.82
2023-01-29T00:37:36.092Z,80.73
2023-01-29T00:40:03.708Z,80.75
2023-01-29T00:42:49.088Z,81.18
2023-01-29T00:45:17.123Z,80.40
2023-01-29T00:47:45.543Z,80.41
2023-01-29T00:50:13.428Z,77.96
2023-01-29T00:52:41.354Z,77.92
2023-01-29T00:55:10.955Z,77.40
2023-01-29T00:57:39.167Z,77.05
2023-01-29T01:00:09.512Z,76.86
2023-01-29T01:02:55.554Z,75.83
2023-01-29T01:05:22.769Z,75.83
2023-01-29T01:07:52.273Z,74.54
2023-01-29T01:10:27.742Z,75.48
2023-01-29T01:13:02.901Z,75.01
2023-01-29T01:15:32.537Z,74.10
2023-01-29T01:18:01.194Z,74.48
2023-01-29T01:20:32.653Z,73.94
2023-01-29T01:22:59.531Z,74.01
2023-01-29T01:25:27.813Z,73.95
2023-01-29T01:30:26.665Z,74.13
2023-01-29T01:32:53.556Z,74.09
2023-01-29T01:35:20.570Z,73.15
2023-01-29T01:37:47.580Z,73.88
2023-01-29T01:40:20.646Z,74.28
2023-01-29T01:42:56.121Z,73.70
2023-01-29T01:45:32.101Z,73.44
2023-01-29T01:48:13.199Z,73.16
2023-01-29T01:50:48.287Z,72.00
2023-01-29T01:53:20.673Z,73.21
2023-01-29T01:55:52.731Z,72.93
2023-01-29T01:58:28.083Z,73.30
2023-01-29T02:00:55.975Z,73.25
2023-01-29T02:03:42.717Z,72.30
2023-01-29T02:06:29.900Z,72.03
2023-01-29T02:09:20.886Z,73.00
2023-01-29T02:11:47.757Z,72.15
2023-01-29T02:14:14.839Z,72.38
2023-01-29T02:16:42.023Z,72.80
2023-01-29T02:19:41.407Z,72.63
2023-01-29T02:22:25.882Z,71.67
2023-01-29T02:25:11.135Z,72.38
2023-01-29T02:27:39.235Z,72.30
2023-01-29T02:30:12.885Z,71.75
2023-01-29T02:32:54.800Z,72.31
2023-01-29T02:35:32.099Z,70.85
2023-01-29T02:38:13.192Z,71.53
2023-01-29T02:40:45.368Z,71.49
2023-01-29T02:43:44.273Z,72.28
2023-01-29T02:46:23.232Z,71.89
2023-01-29T02:49:03.319Z,72.17
2023-01-29T02:51:56.113Z,71.71
2023-01-29T02:54:41.894Z,72.15
2023-01-29T02:57:34.916Z,72.60
2023-01-29T03:00:35.541Z,72.35
2023-01-29T03:03:20.606Z,71.79
2023-01-29T03:06:24.075Z,71.28
2023-01-29T03:09:07.326Z,71.07
2023-01-29T03:11:48.969Z,71.46
2023-01-29T03:14:54.472Z,70.91
2023-01-29T03:17:27.158Z,71.11
2023-01-29T03:19:54.491Z,71.42
2023-01-29T03:22:23.865Z,71.59
2023-01-29T03:25:21.007Z,71.49
2023-01-29T03:28:12.558Z,71.80
2023-01-29T03:31:12.895Z,72.06
2023-01-29T03:34:16.555Z,72.56
2023-01-29T03:36:55.901Z,72.25
2023-01-29T03:39:30.510Z,72.83
2023-01-29T03:42:03.173Z,72.52
2023-01-29T03:44:59.202Z,72.90
2023-01-29T03:47:50.097Z,72.90
2023-01-29T03:50:49.466Z,73.17
2023-01-29T03:53:34.959Z,72.76
2023-01-29T03:56:08.730Z,73.46
2023-01-29T03:58:51.694Z,73.14
2023-01-29T04:01:29.806Z,72.91
2023-01-29T04:04:01.891Z,72.63
2023-01-29T04:06:33.914Z,72.80
2023-01-29T04:09:06.965Z,73.58
2023-01-29T04:11:41.601Z,73.23
2023-01-29T04:14:10.872Z,72.75
2023-01-29T04:16:50.132Z,72.45
2023-01-29T04:19:25.263Z,72.12
2023-01-29T04:22:03.504Z,73.02
2023-01-29T04:24:30.947Z,72.38
2023-01-29T04:27:26.746Z,72.40
2023-01-29T04:30:17.640Z,72.71
2023-01-29T04:32:48.259Z,72.46
2023-01-29T04:35:54.008Z,72.47
2023-01-29T04:38:23.759Z,72.96
2023-01-29T04:41:16.833Z,73.72
2023-01-29T04:43:59.544Z,73.43
2023-01-29T04:46:47.811Z,74.08
2023-01-29T04:49:50.538Z,73.91
2023-01-29T04:52:38.713Z,73.79
2023-01-29T04:55:08.471Z,73.65
2023-01-29T04:57:57.540Z,74.10
2023-01-29T05:00:35.132Z,74.08
2023-01-29T05:03:04.152Z,74.12
2023-01-29T05:05:31.634Z,74.00
2023-01-29T05:08:00.186Z,73.90
2023-01-29T05:10:27.822Z,73.31
2023-01-29T05:13:02.998Z,73.74
2023-01-29T05:15:39.976Z,74.12
2023-01-29T05:18:08.984Z,73.55
2023-01-29T05:20:39.328Z,74.29
2023-01-29T05:23:16.780Z,74.21
2023-01-29T05:25:44.558Z,74.29
2023-01-29T05:28:17.823Z,73.99
2023-01-29T05:30:49.012Z,74.28
2023-01-29T05:33:20.673Z,73.99
2023-01-29T05:35:48.781Z,73.53
2023-01-29T05:38:16.596Z,74.55
2023-01-29T05:40:44.413Z,74.40
2023-01-29T05:43:23.423Z,74.51
2023-01-29T05:46:00.901Z,74.16
2023-01-29T05:48:29.165Z,74.74
2023-01-29T05:51:03.911Z,74.73
2023-01-29T05:53:31.506Z,74.58
2023-01-29T05:56:01.505Z,74.94
2023-01-29T05:58:30.101Z,75.03
2023-01-29T06:00:56.932Z,74.94
2023-01-29T06:03:23.863Z,74.88
2023-01-29T06:05:50.861Z,74.84
2023-01-29T06:08:17.742Z,74.72
2023-01-29T06:10:44.601Z,75.08
2023-01-29T06:13:11.496Z,74.52
2023-01-29T06:15:40.892Z,74.61
2023-01-29T06:18:09.538Z,74.45
2023-01-29T06:20:37.338Z,74.73
2023-01-29T06:23:04.162Z,74.33
2023-01-29T06:25:31.273Z,74.17
2023-01-29T06:27:59.538Z,74.20
2023-01-29T06:30:26.609Z,74.43
2023-01-29T06:32:58.912Z,74.10
2023-01-29T06:35:26.345Z,74.41
2023-01-29T06:37:53.294Z,74.11
2023-01-29T06:40:20.329Z,73.80
2023-01-29T06:42:47.210Z,73.59
2023-01-29T06:45:14.293Z,73.86
2023-01-29T06:47:41.197Z,73.45
2023-01-29T06:50:08.557Z,72.80
2023-01-29T06:52:35.480Z,73.23
2023-01-29T06:55:02.329Z,73.15
2023-01-29T06:57:30.218Z,73.40
2023-01-29T06:59:57.156Z,73.15
2023-01-29T07:02:24.183Z,73.19
2023-01-29T07:04:51.106Z,72.97
2023-01-29T07:07:18.575Z,72.76
2023-01-29T07:09:45.825Z,73.47
2023-01-29T07:12:12.728Z,72.07
2023-01-29T07:14:39.679Z,72.88
2023-01-29T07:17:06.957Z,72.69
2023-01-29T07:19:33.891Z,72.15
2023-01-29T07:22:03.293Z,71.85
2023-01-29T07:24:30.544Z,71.72
2023-01-29T07:26:57.661Z,70.41
2023-01-29T07:29:24.487Z,70.71
2023-01-29T07:31:51.541Z,71.05
2023-01-29T07:34:18.565Z,69.29
2023-01-29T07:36:47.791Z,69.18
2023-01-29T07:39:15.144Z,68.98
2023-01-29T07:41:42.182Z,69.66
2023-01-29T07:44:15.947Z,69.40
2023-01-29T07:46:43.233Z,69.14
2023-01-29T07:49:10.080Z,69.34
2023-01-29T07:51:37.136Z,68.58
2023-01-29T07:54:04.258Z,69.30
2023-01-29T07:56:31.127Z,68.73
2023-01-29T07:58:58.177Z,68.38
2023-01-29T08:01:25.228Z,68.10
2023-01-29T08:03:52.195Z,68.49
2023-01-29T08:06:19.757Z,67.97
2023-01-29T08:08:46.827Z,67.53
2023-01-29T08:11:14.051Z,67.48
2023-01-29T08:13:48.481Z,66.55
2023-01-29T08:16:16.656Z,66.53
2023-01-29T08:18:47.896Z,67.10
2023-01-29T08:21:15.342Z,66.46
2023-01-29T08:23:42.313Z,67.09
2023-01-29T08:26:09.395Z,66.59
2023-01-29T08:28:36.549Z,67.28
2023-01-29T08:31:03.591Z,66.65
2023-01-29T08:33:39.016Z,66.29
2023-01-29T08:36:07.093Z,66.05
2023-01-29T08:38:34.064Z,65.61
2023-01-29T08:41:01.128Z,64.62
2023-01-29T08:43:28.038Z,65.19
2023-01-29T08:45:55.011Z,65.55
2023-01-29T08:48:21.942Z,65.95
2023-01-29T08:50:48.811Z,65.55
2023-01-29T08:53:15.846Z,65.19
2023-01-29T08:55:42.841Z,64.57
2023-01-29T08:58:11.642Z,64.86
2023-01-29T09:00:39.430Z,64.58
2023-01-29T09:03:08.023Z,64.86
2023-01-29T09:05:36.176Z,63.88
2023-01-29T09:08:03.525Z,64.03
2023-01-29T09:10:30.744Z,64.63
2023-01-29T09:12:57.782Z,64.44
2023-01-29T09:15:24.852Z,63.75
2023-01-29T09:17:52.088Z,64.32
2023-01-29T09:20:19.687Z,64.53
2023-01-29T09:22:47.204Z,64.88
2023-01-29T09:25:14.736Z,65.35
2023-01-29T09:27:42.186Z,65.19
2023-01-29T09:30:09.747Z,65.33
2023-01-29T09:32:52.671Z,65.33
2023-01-29T09:35:21.779Z,65.22
2023-01-29T09:37:49.667Z,65.40
2023-01-29T09:40:27.462Z,65.58
2023-01-29T09:43:19.320Z,65.39
2023-01-29T09:45:55.335Z,65.54
2023-01-29T09:48:27.473Z,66.00
2023-01-29T09:50:57.119Z,66.17
2023-01-29T09:53:34.897Z,66.02
2023-01-29T09:56:23.825Z,66.05
2023-01-29T09:58:50.879Z,65.46
2023-01-29T10:01:37.448Z,65.90
2023-01-29T10:04:19.772Z,66.35
2023-01-29T10:06:46.669Z,66.44
2023-01-29T10:09:57.782Z,66.25
2023-01-29T10:12:36.831Z,66.58
2023-01-29T10:15:29.835Z,66.14
2023-01-29T10:18:41.625Z,65.91
2023-01-29T10:21:11.763Z,65.98
2023-01-29T10:23:49.782Z,66.15
2023-01-29T10:26:18.714Z,65.67
2023-01-29T10:28:50.828Z,66.29
2023-01-29T10:31:29.408Z,65.17
2023-01-29T10:34:03.123Z,64.79
2023-01-29T10:36:44.184Z,65.02
2023-01-29T10:39:21.924Z,64.79
2023-01-29T10:42:05.964Z,65.19
2023-01-29T10:44:35.898Z,65.81
2023-01-29T10:47:33.875Z,64.82
2023-01-29T10:50:13.019Z,65.20
2023-01-29T10:53:05.056Z,64.96
2023-01-29T10:55:35.156Z,65.34
2023-01-29T10:58:46.820Z,65.32
2023-01-29T11:01:14.223Z,65.20
2023-01-29T11:03:41.183Z,65.12
2023-01-29T11:06:28.054Z,65.29
2023-01-29T11:09:06.228Z,64.94
2023-01-29T11:11:50.938Z,64.85
2023-01-29T11:14:20.599Z,64.81
2023-01-29T11:16:49.227Z,64.89
2023-01-29T11:19:17.275Z,64.54
2023-01-29T11:21:58.433Z,64.56
2023-01-29T11:24:26.095Z,64.91
2023-01-29T11:26:57.252Z,64.64
2023-01-29T11:29:30.139Z,64.11
2023-01-29T11:31:59.074Z,64.99
2023-01-29T11:34:31.178Z,65.24
2023-01-29T11:37:15.152Z,65.60
2023-01-29T11:39:47.365Z,65.21
2023-01-29T11:42:22.391Z,64.93
2023-01-29T11:44:50.073Z,64.70
2023-01-29T11:47:16.977Z,65.45
2023-01-29T11:49:55.448Z,66.07
2023-01-29T11:52:25.784Z,65.60
2023-01-29T11:55:03.241Z,65.61
2023-01-29T11:57:41.273Z,66.31
2023-01-29T12:00:24.154Z,65.31
2023-01-29T12:02:59.166Z,65.60
2023-01-29T12:05:27.407Z,66.02
2023-01-29T12:08:00.467Z,66.25
2023-01-29T12:10:35.587Z,66.26
2023-01-29T12:13:06.901Z,66.44
2023-01-29T12:15:34.216Z,66.39
2023-01-29T12:18:07.421Z,66.46
2023-01-29T12:20:46.803Z,66.88
2023-01-29T12:23:31.667Z,66.64
2023-01-29T12:26:09.193Z,66.88
2023-01-29T12:28:51.179Z,66.76
2023-01-29T12:31:36.891Z,67.17
2023-01-29T12:34:43.631Z,67.26
2023-01-29T12:37:49.030Z,68.04
2023-01-29T13:03:27.584Z,68.31
2023-01-29T13:05:59.373Z,68.48
2023-01-29T13:08:40.001Z,67.86
2023-01-29T13:11:22.641Z,69.07
2023-01-29T13:13:54.771Z,69.97
2023-01-29T13:16:37.847Z,69.70
2023-01-29T13:19:18.626Z,69.66
2023-01-29T13:21:46.610Z,69.31
2023-01-29T13:24:17.607Z,70.30
2023-01-29T13:26:46.528Z,69.92
2023-01-29T13:29:25.380Z,70.90
2023-01-29T13:31:55.447Z,70.81
2023-01-29T13:34:31.666Z,70.31
2023-01-29T13:37:21.010Z,70.43
2023-01-29T13:39:52.577Z,70.42
2023-01-29T13:42:22.049Z,71.11
2023-01-29T13:44:55.660Z,70.99
2023-01-29T13:47:27.939Z,71.08
2023-01-29T13:49:57.167Z,72.38
2023-01-29T13:52:53.356Z,72.23
2023-01-29T13:55:26.378Z,71.40
2023-01-29T13:57:56.248Z,71.10
2023-01-29T14:00:25.222Z,71.11
2023-01-29T14:02:55.326Z,71.20
2023-01-29T14:05:31.225Z,71.29
2023-01-29T14:08:01.637Z,71.60
2023-01-29T14:10:36.167Z,71.64
2023-01-29T14:13:18.336Z,72.45
2023-01-29T14:16:06.297Z,72.11
2023-01-29T14:18:35.268Z,72.98
2023-01-29T14:21:14.261Z,73.03
2023-01-29T14:23:49.969Z,73.20
2023-01-29T14:26:55.445Z,73.52
2023-01-29T14:29:35.107Z,72.90
2023-01-29T14:32:08.059Z,72.35
2023-01-29T14:34:41.733Z,72.41
2023-01-29T14:37:18.877Z,73.00
2023-01-29T14:39:52.186Z,72.72
2023-01-29T14:42:22.206Z,72.52
2023-01-29T14:44:59.109Z,73.07
2023-01-29T14:47:35.059Z,73.28
2023-01-29T14:50:23.259Z,73.32
2023-01-29T14:52:54.160Z,73.85
2023-01-29T14:55:37.414Z,73.67
2023-01-29T14:58:05.134Z,73.13
2023-01-29T15:00:37.680Z,73.28
2023-01-29T15:03:14.809Z,74.30
2023-01-29T15:05:43.124Z,74.33
2023-01-29T15:08:21.369Z,74.43
2023-01-29T15:11:16.056Z,74.19
2023-01-29T15:14:25.603Z,74.37
2023-01-29T15:16:56.030Z,74.42
2023-01-29T15:19:33.023Z,73.81
2023-01-29T15:22:08.211Z,74.45
2023-01-29T15:24:36.559Z,74.97
2023-01-29T15:27:04.107Z,75.74
2023-01-29T15:29:31.287Z,77.01
2023-01-29T15:31:58.987Z,76.47
2023-01-29T15:34:26.439Z,77.34
2023-01-29T15:36:53.516Z,77.80
2023-01-29T15:39:21.620Z,77.42
2023-01-29T15:41:50.939Z,78.02
2023-01-29T15:44:23.301Z,78.10
2023-01-29T15:46:56.058Z,78.54
2023-01-29T15:49:31.371Z,79.68
2023-01-29T15:52:00.990Z,78.98
2023-01-29T15:54:31.613Z,79.38
2023-01-29T15:56:59.402Z,79.50
2023-01-29T15:59:30.878Z,79.10
2023-01-29T16:01:58.266Z,78.94
2023-01-29T16:04:29.124Z,80.53
2023-01-29T16:06:58.351Z,79.53
2023-01-29T16:09:27.395Z,81.34
2023-01-29T16:11:57.849Z,81.12
2023-01-29T16:14:26.855Z,80.50
2023-01-29T16:16:54.763Z,81.53
2023-01-29T16:19:27.202Z,81.70
2023-01-29T16:22:03.112Z,81.83
2023-01-29T16:24:32.597Z,81.90
2023-01-29T16:27:02.138Z,81.40
2023-01-29T16:29:32.051Z,81.97
2023-01-29T16:32:02.566Z,81.07
2023-01-29T16:34:33.978Z,80.99
2023-01-29T16:37:03.441Z,80.73
2023-01-29T16:39:34.590Z,80.41
2023-01-29T16:42:10.878Z,81.19
2023-01-29T16:44:45.494Z,80.80
2023-01-29T16:47:43.856Z,80.94
2023-01-29T16:50:40.507Z,80.66
2023-01-29T16:53:35.718Z,80.83
2023-01-29T16:56:05.925Z,81.63
2023-01-29T16:58:33.099Z,81.37
2023-01-29T17:01:10.874Z,80.86
2023-01-29T17:03:39.921Z,80.87
2023-01-29T17:06:21.957Z,80.97
2023-01-29T17:08:49.661Z,80.38
2023-01-29T17:11:44.993Z,79.82
2023-01-29T17:14:19.364Z,79.81
2023-01-29T17:16:53.357Z,80.07
2023-01-29T17:19:20.898Z,79.65
2023-01-29T17:21:48.049Z,79.61
2023-01-29T17:24:15.139Z,80.46
2023-01-29T17:26:42.405Z,80.35
2023-01-29T17:29:15.676Z,80.68
2023-01-29T17:31:43.461Z,80.30
2023-01-29T17:34:14.982Z,80.60
2023-01-29T17:36:43.345Z,80.41
2023-01-29T17:39:17.795Z,80.47
2023-01-29T17:41:54.018Z,80.49
2023-01-29T17:44:21.700Z,80.98
2023-01-29T17:46:48.848Z,80.76
2023-01-29T17:49:25.539Z,80.94
2023-01-29T17:51:53.828Z,81.46
2023-01-29T17:54:22.266Z,80.94
2023-01-29T17:56:50.199Z,80.54
2023-01-29T17:59:19.933Z,81.13
2023-01-29T18:01:47.628Z,80.19
2023-01-29T18:04:15.647Z,79.94
2023-01-29T18:06:44.096Z,79.29
2023-01-29T18:09:16.220Z,79.77
2023-01-29T18:11:43.590Z,79.25
2023-01-29T18:14:14.043Z,79.79
2023-01-29T18:16:43.470Z,79.56
2023-01-29T18:19:14.671Z,79.21
2023-01-29T18:21:41.682Z,79.35
2023-01-29T18:24:08.993Z,79.54
2023-01-29T18:26:36.247Z,79.26
2023-01-29T18:29:04.800Z,79.51
2023-01-29T18:31:32.247Z,79.64
2023-01-29T18:33:59.319Z,79.35
2023-01-29T18:36:26.375Z,79.09
2023-01-29T18:38:53.417Z,79.25
2023-01-29T18:41:20.371Z,79.46
2023-01-29T18:43:47.338Z,78.84
2023-01-29T18:46:14.455Z,78.51
2023-01-29T18:48:42.726Z,79.05
2023-01-29T18:51:09.897Z,78.76
2023-01-29T18:53:36.983Z,78.86
2023-01-29T18:56:05.821Z,78.67
2023-01-29T18:58:36.979Z,78.42
2023-01-29T19:01:09.364Z,78.43
2023-01-29T19:03:37.386Z,78.29
2023-01-29T19:06:06.521Z,78.14
2023-01-29T19:08:34.362Z,77.98
2023-01-29T19:11:04.037Z,77.70
2023-01-29T19:13:32.274Z,77.89
2023-01-29T19:15:59.329Z,78.66
2023-01-29T19:18:27.083Z,78.09
2023-01-29T19:20:55.259Z,77.71
2023-01-29T19:23:22.361Z,77.62
2023-01-29T19:25:49.346Z,77.19
2023-01-29T19:28:16.460Z,77.44
2023-01-29T19:30:43.509Z,77.16
2023-01-29T19:33:10.850Z,77.09
2023-01-29T19:35:37.807Z,77.50
2023-01-29T19:38:05.244Z,77.85
2023-01-29T19:40:32.236Z,77.45
2023-01-29T19:42:59.590Z,77.42
2023-01-29T19:45:49.885Z,77.34
2023-01-29T19:48:17.104Z,77.28
2023-01-29T19:50:50.526Z,77.72
2023-01-29T19:53:17.409Z,77.56
2023-01-29T19:55:44.233Z,78.14
2023-01-29T19:58:11.175Z,77.43
2023-01-29T20:00:38.052Z,77.57
2023-01-29T20:03:04.941Z,77.56
2023-01-29T20:05:31.862Z,78.09
2023-01-29T20:07:58.721Z,77.77
2023-01-29T20:10:27.692Z,77.85
2023-01-29T20:12:54.563Z,78.08
2023-01-29T20:15:22.551Z,78.16
2023-01-29T20:17:49.601Z,78.88
2023-01-29T20:20:17.700Z,79.41
2023-01-29T20:22:44.874Z,79.29
2023-01-29T20:25:13.764Z,78.67
2023-01-29T20:27:40.950Z,78.81
2023-01-29T20:30:08.502Z,78.19
2023-01-29T20:32:35.532Z,78.73
2023-01-29T20:35:02.702Z,78.74
2023-01-29T20:37:29.609Z,78.23
2023-01-29T20:39:56.491Z,78.86
2023-01-29T20:42:23.452Z,78.71
2023-01-29T20:44:50.361Z,78.56
2023-01-29T20:47:17.332Z,78.87
2023-01-29T20:49:44.268Z,79.12
2023-01-29T20:52:12.549Z,79.11
2023-01-29T20:54:40.297Z,78.55
2023-01-29T20:57:07.298Z,78.63
2023-01-29T20:59:34.258Z,79.23
2023-01-29T21:02:01.090Z,79.10
2023-01-29T21:04:28.294Z,79.25
2023-01-29T21:06:55.257Z,79.07
2023-01-29T21:09:22.168Z,79.81
2023-01-29T21:11:49.231Z,79.78
2023-01-29T21:14:16.199Z,79.99
2023-01-29T21:16:43.387Z,79.64
2023-01-29T21:19:14.559Z,78.87
2023-01-29T21:21:41.492Z,78.89
2023-01-29T21:24:09.408Z,79.22
2023-01-29T21:26:39.366Z,79.40
2023-01-29T21:29:06.831Z,78.96
2023-01-29T21:31:34.594Z,78.64
2023-01-29T21:34:01.943Z,78.99
2023-01-29T21:36:28.952Z,79.29
2023-01-29T21:38:55.992Z,79.78
2023-01-29T21:41:43.204Z,79.97
2023-01-29T21:44:10.807Z,80.24
2023-01-29T21:46:37.803Z,80.77
2023-01-29T21:49:05.137Z,80.26
2023-01-29T21:51:32.008Z,79.88
2023-01-29T21:53:58.979Z,79.34
2023-01-29T21:56:25.843Z,79.45
2023-01-29T21:58:52.837Z,79.86
2023-01-29T22:01:38.067Z,80.22
2023-01-29T22:04:08.737Z,81.50
2023-01-29T22:06:35.705Z,80.82
2023-01-29T22:09:02.607Z,80.62
2023-01-29T22:11:30.399Z,81.53
2023-01-29T22:13:57.269Z,81.10
2023-01-29T22:16:24.137Z,80.17
2023-01-29T22:18:51.076Z,80.28
2023-01-29T22:21:18.015Z,80.02
2023-01-29T22:23:49.526Z,80.63
2023-01-29T22:26:17.000Z,80.10
2023-01-29T22:28:44.047Z,80.39
2023-01-29T22:31:11.755Z,80.00
2023-01-29T22:33:38.744Z,79.44
2023-01-29T22:36:06.133Z,79.19
2023-01-29T22:38:33.025Z,79.72
2023-01-29T22:41:01.669Z,79.90
2023-01-29T22:43:29.436Z,80.13
2023-01-29T22:45:59.379Z,80.06
2023-01-29T22:48:27.044Z,79.87
2023-01-29T22:51:10.152Z,80.74
2023-01-29T22:53:39.426Z,80.46
2023-01-29T22:56:07.273Z,81.10
2023-01-29T22:58:34.499Z,80.74
2023-01-29T23:01:01.491Z,80.68
2023-01-29T23:03:28.638Z,79.68
2023-01-29T23:05:55.569Z,80.53
2023-01-29T23:08:22.549Z,80.18
2023-01-29T23:10:49.424Z,80.29
2023-01-29T23:13:16.493Z,80.54
2023-01-29T23:15:43.886Z,80.50
2023-01-29T23:18:11.204Z,80.30
2023-01-29T23:20:38.946Z,80.32
2023-01-29T23:23:05.841Z,80.35
2023-01-29T23:25:51.509Z,80.60
2023-01-29T23:28:18.623Z,80.38
2023-01-29T23:30:45.640Z,80.98
2023-01-29T23:33:12.645Z,81.51
2023-01-29T23:35:39.877Z,81.46
2023-01-29T23:38:06.758Z,81.42
2023-01-29T23:40:33.668Z,81.76
2023-01-29T23:43:00.581Z,80.93
2023-01-29T23:45:27.489Z,81.14
2023-01-29T23:47:54.371Z,81.62
2023-01-29T23:50:21.319Z,81.16
2023-01-29T23:52:48.434Z,81.45
2023-01-29T23:55:15.459Z,81.81
2023-01-29T23:57:42.506Z,81.54
